createdAt,value
2024-04-06T00:22:17.882Z,1015.85
2024-04-06T00:50:57.186Z,1015.94
2024-04-06T01:19:41.902Z,1015.62
2024-04-06T01:48:33.264Z,1015.42
2024-04-06T02:17:14.174Z,1015.51
2024-04-06T02:46:01.065Z,1015.71
2024-04-06T03:14:47.490Z,1015.66
2024-04-06T03:43:31.977Z,1015.76
2024-04-06T04:12:10.608Z,1015.63
2024-04-06T04:40:46.104Z,1015.65
2024-04-06T05:09:28.526Z,1015.89
2024-04-06T05:38:20.289Z,1016.02
2024-04-06T06:07:02.589Z,1016.08
2024-04-06T07:04:59.164Z,1016.15
2024-04-06T07:33:41.882Z,1016.28
2024-04-06T08:02:20.161Z,1016.13
2024-04-06T08:31:14.800Z,1015.89
2024-04-06T08:59:31.328Z,1015.88
2024-04-06T09:28:14.060Z,1015.68
2024-04-06T09:57:05.645Z,1015.43
2024-04-06T10:26:02.125Z,1015.14
2024-04-06T10:54:31.516Z,1014.77
2024-04-06T11:23:18.483Z,1014.52
2024-04-06T11:52:01.294Z,1014.26
2024-04-06T12:20:45.799Z,1014.1
2024-04-06T12:49:31.911Z,1013.77
2024-04-06T13:18:15.113Z,1013.54
2024-04-06T13:46:59.315Z,1012.98
2024-04-06T14:15:53.159Z,1012.77
2024-04-06T14:44:54.284Z,1012.56
2024-04-06T15:13:33.539Z,1012.38
2024-04-06T15:42:11.738Z,1012.16
2024-04-06T16:10:50.780Z,1012.13
2024-04-06T17:07:56.529Z,1012.07
2024-04-06T17:36:30.266Z,1012.31
2024-04-06T18:05:15.038Z,1012.4
2024-04-06T20:57:18.375Z,1013.35
2024-04-06T21:26:03.348Z,1013.45
2024-04-06T21:54:30.509Z,1013.48
2024-04-06T22:23:24.642Z,1013.3
2024-04-06T22:52:11.638Z,1012.98
2024-04-06T23:20:55.273Z,1012.56
2024-04-06T23:49:54.965Z,1012.65
